createdAt,value
2017-05-29T00:00:36.164Z,1001.14
2017-05-29T00:01:46.516Z,1001.11
2017-05-29T00:02:56.924Z,1001.1
2017-05-29T00:04:07.281Z,1001.11
2017-05-29T00:05:17.635Z,1001.1
2017-05-29T00:06:27.982Z,1001.11
2017-05-29T00:07:38.338Z,1001.06
2017-05-29T00:08:48.411Z,1001.09
2017-05-29T00:09:58.760Z,1001.04
2017-05-29T00:11:09.110Z,1001.02
2017-05-29T00:12:19.446Z,1001
2017-05-29T00:13:29.470Z,1000.97
2017-05-29T00:14:39.816Z,1000.99
2017-05-29T00:15:50.167Z,1000.96
2017-05-29T00:17:00.532Z,1000.91
2017-05-29T00:18:10.884Z,1000.95
2017-05-29T00:19:21.231Z,1000.95
2017-05-29T00:20:30.997Z,1000.9
2017-05-29T00:21:41.337Z,1000.91
2017-05-29T00:22:51.089Z,1000.9
2017-05-29T00:24:01.444Z,1000.9
2017-05-29T00:25:11.793Z,1000.84
2017-05-29T00:26:22.201Z,1000.84
2017-05-29T00:27:32.238Z,1000.82
2017-05-29T00:28:42.585Z,1000.84
2017-05-29T00:29:52.954Z,1000.83
2017-05-29T00:31:03.003Z,1000.83
2017-05-29T00:32:13.359Z,1000.82
2017-05-29T00:33:23.081Z,1000.82
2017-05-29T00:34:32.800Z,1000.78
2017-05-29T00:35:43.144Z,1000.75
2017-05-29T00:36:53.181Z,1000.72
2017-05-29T00:38:03.217Z,1000.7
2017-05-29T00:39:13.254Z,1000.71
2017-05-29T00:40:23.615Z,1000.69
2017-05-29T00:41:33.983Z,1000.66
2017-05-29T00:42:44.014Z,1000.65
2017-05-29T00:43:54.409Z,1000.63
2017-05-29T00:45:04.757Z,1000.63
2017-05-29T00:46:15.128Z,1000.6
2017-05-29T00:47:24.859Z,1000.6
2017-05-29T00:48:34.576Z,1000.61
2017-05-29T00:49:44.938Z,1000.6
2017-05-29T00:50:55.294Z,1000.59
2017-05-29T00:52:05.633Z,1000.61
2017-05-29T00:53:15.359Z,1000.58
2017-05-29T00:54:25.718Z,1000.61
2017-05-29T00:55:36.126Z,1000.56
2017-05-29T00:56:46.470Z,1000.56
2017-05-29T00:57:56.489Z,1000.58
2017-05-29T00:59:06.838Z,1000.53
2017-05-29T01:00:16.949Z,1000.53
2017-05-29T01:01:27.308Z,1000.52
2017-05-29T01:02:37.660Z,1000.51
2017-05-29T01:03:48.010Z,1000.48
2017-05-29T01:04:58.359Z,1000.46
2017-05-29T01:06:08.700Z,1000.44
2017-05-29T01:07:19.058Z,1000.47
2017-05-29T01:08:29.423Z,1000.4
2017-05-29T01:09:39.452Z,1000.41
2017-05-29T01:10:50.012Z,1000.34
2017-05-29T01:11:59.746Z,1000.32
2017-05-29T01:13:10.381Z,1000.29
2017-05-29T01:14:20.758Z,1000.24
2017-05-29T01:15:30.807Z,1000.22
2017-05-29T01:16:41.127Z,1000.21
2017-05-29T01:17:51.473Z,1000.22
2017-05-29T01:19:01.576Z,1000.17
2017-05-29T01:20:11.634Z,1000.15
2017-05-29T01:21:21.969Z,1000.17
2017-05-29T01:22:32.340Z,1000.13
2017-05-29T01:23:42.681Z,1000.13
2017-05-29T01:24:52.414Z,1000.13
2017-05-29T01:26:02.771Z,1000.16
2017-05-29T01:27:13.127Z,1000.17
2017-05-29T01:28:23.161Z,1000.17
2017-05-29T01:29:33.517Z,1000.18
2017-05-29T01:30:43.557Z,1000.16
2017-05-29T01:31:53.606Z,1000.18
2017-05-29T01:33:03.641Z,1000.18
2017-05-29T01:34:13.987Z,1000.14
2017-05-29T01:35:24.019Z,1000.19
2017-05-29T01:36:33.446Z,1000.18
2017-05-29T01:37:43.803Z,1000.17
2017-05-29T01:38:54.149Z,1000.12
2017-05-29T01:40:04.199Z,1000.11
2017-05-29T01:41:14.548Z,1000.09
2017-05-29T01:42:24.949Z,1000.07
2017-05-29T01:43:35.312Z,1000.06
2017-05-29T01:44:45.668Z,1000.05
2017-05-29T01:45:56.023Z,1000.06
2017-05-29T01:47:06.067Z,1000.09
2017-05-29T01:48:16.103Z,1000.05
2017-05-29T01:49:26.455Z,1000.06
2017-05-29T01:50:36.487Z,1000.09
2017-05-29T01:51:46.845Z,1000.08
2017-05-29T01:52:56.899Z,1000.13
2017-05-29T01:54:07.283Z,1000.13
2017-05-29T01:55:17.640Z,1000.05
2017-05-29T01:56:27.369Z,1000.11
2017-05-29T01:57:37.085Z,1000.07
2017-05-29T01:58:47.430Z,1000
2017-05-29T01:59:57.769Z,999.99
2017-05-29T02:01:07.807Z,999.97
2017-05-29T02:02:17.576Z,999.98
2017-05-29T02:03:27.942Z,999.99
2017-05-29T02:04:37.984Z,999.96
2017-05-29T02:05:48.386Z,999.96
2017-05-29T02:06:58.740Z,999.99
2017-05-29T02:08:09.083Z,1000.01
2017-05-29T02:09:18.800Z,999.97
2017-05-29T02:10:28.848Z,999.98
2017-05-29T02:11:38.883Z,999.96
2017-05-29T02:12:49.238Z,999.94
2017-05-29T02:13:59.610Z,999.94
2017-05-29T02:15:09.960Z,999.93
2017-05-29T02:16:19.976Z,999.91
2017-05-29T02:17:30.335Z,999.89
2017-05-29T02:18:40.681Z,999.88
2017-05-29T02:19:51.037Z,999.87
2017-05-29T02:21:01.385Z,999.9
2017-05-29T02:22:11.732Z,999.91
2017-05-29T02:23:22.139Z,999.91
2017-05-29T02:24:32.489Z,999.89
2017-05-29T02:25:42.832Z,999.9
2017-05-29T02:26:53.189Z,999.87
2017-05-29T02:28:03.536Z,999.87
2017-05-29T02:29:13.949Z,999.85
2017-05-29T02:30:24.317Z,999.84
2017-05-29T02:31:34.664Z,999.79
2017-05-29T02:32:45.026Z,999.85
2017-05-29T02:33:55.087Z,999.82
2017-05-29T02:35:05.189Z,999.86
2017-05-29T02:36:15.552Z,999.84
2017-05-29T02:37:25.889Z,999.85
2017-05-29T02:38:36.235Z,999.82
2017-05-29T02:39:46.598Z,999.85
2017-05-29T02:40:56.948Z,999.8
2017-05-29T02:42:06.986Z,999.84
2017-05-29T02:43:17.045Z,999.81
2017-05-29T02:44:27.080Z,999.84
2017-05-29T02:45:37.429Z,999.79
2017-05-29T02:46:47.794Z,999.76
2017-05-29T02:47:58.161Z,999.77
2017-05-29T02:49:08.212Z,999.77
2017-05-29T02:50:18.269Z,999.78
2017-05-29T02:51:28.302Z,999.76
2017-05-29T02:52:38.702Z,999.8
2017-05-29T02:53:49.053Z,999.78
2017-05-29T02:54:59.416Z,999.78
2017-05-29T02:56:09.779Z,999.79
2017-05-29T02:57:19.814Z,999.78
2017-05-29T02:58:30.170Z,999.76
2017-05-29T02:59:40.532Z,999.73
2017-05-29T03:00:50.871Z,999.74
2017-05-29T03:02:00.926Z,999.76
2017-05-29T03:33:16.446Z,999.71
2017-05-29T03:34:26.793Z,999.75
2017-05-29T03:35:36.827Z,999.71
2017-05-29T03:36:47.163Z,999.74
2017-05-29T03:37:57.516Z,999.72
2017-05-29T03:39:07.602Z,999.72
2017-05-29T03:40:17.945Z,999.74
2017-05-29T03:41:28.289Z,999.76
2017-05-29T03:42:38.634Z,999.81
2017-05-29T03:43:48.994Z,999.77
2017-05-29T03:44:58.761Z,999.74
2017-05-29T03:46:09.108Z,999.77
2017-05-29T03:47:19.145Z,999.77
2017-05-29T03:48:29.170Z,999.75
2017-05-29T03:49:39.513Z,999.76
2017-05-29T03:50:49.609Z,999.73
2017-05-29T03:51:59.966Z,999.73
2017-05-29T03:53:10.298Z,999.74
2017-05-29T03:54:20.320Z,999.78
2017-05-29T03:55:30.412Z,999.79
2017-05-29T03:56:40.453Z,999.8
2017-05-29T03:57:50.816Z,999.85
2017-05-29T03:59:01.166Z,999.91
2017-05-29T04:00:11.218Z,999.9
2017-05-29T04:01:21.464Z,999.94
2017-05-29T04:02:31.867Z,999.91
2017-05-29T04:03:42.205Z,999.9
2017-05-29T04:04:52.580Z,999.89
2017-05-29T04:06:02.927Z,999.87
2017-05-29T04:07:13.286Z,999.83
2017-05-29T04:08:23.376Z,999.8
2017-05-29T04:09:33.413Z,999.8
2017-05-29T04:10:43.463Z,999.79
2017-05-29T04:11:53.810Z,999.8
2017-05-29T04:13:04.153Z,999.75
2017-05-29T04:14:14.535Z,999.78
2017-05-29T04:15:24.584Z,999.77
2017-05-29T04:16:34.944Z,999.76
2017-05-29T04:17:45.355Z,999.73
2017-05-29T04:18:55.397Z,999.82
2017-05-29T04:20:05.752Z,1000.18
2017-05-29T04:21:16.102Z,1000.46
2017-05-29T04:22:26.127Z,1000.57
2017-05-29T04:23:36.477Z,1000.7
2017-05-29T04:24:46.843Z,1000.62
2017-05-29T04:25:56.938Z,1000.6
2017-05-29T04:27:06.982Z,1000.6
2017-05-29T04:28:17.327Z,1000.58
2017-05-29T04:29:27.674Z,1000.55
2017-05-29T04:30:38.015Z,1000.55
2017-05-29T04:31:47.498Z,1000.43
2017-05-29T04:32:57.874Z,1000.34
2017-05-29T04:34:08.244Z,1000.35
2017-05-29T04:35:18.292Z,1000.33
2017-05-29T04:36:28.639Z,1000.34
2017-05-29T04:37:39.050Z,1000.25
2017-05-29T04:38:48.806Z,1000.27
2017-05-29T04:39:59.183Z,1000.24
2017-05-29T04:41:09.557Z,1000.26
2017-05-29T04:42:19.912Z,1000.2
2017-05-29T04:43:30.274Z,1000.18
2017-05-29T04:44:40.639Z,1000.28
2017-05-29T04:45:51.006Z,1000.22
2017-05-29T04:47:00.798Z,1000.34
2017-05-29T04:48:11.159Z,1000.4
2017-05-29T04:49:21.189Z,1000.38
2017-05-29T04:50:31.556Z,1000.4
2017-05-29T04:51:40.980Z,1000.25
2017-05-29T04:52:51.329Z,1000.31
2017-05-29T04:54:01.673Z,1000.22
2017-05-29T04:55:12.028Z,1000.28
2017-05-29T04:56:22.400Z,1000.32
2017-05-29T04:57:32.758Z,1000.18
2017-05-29T04:58:43.107Z,1000.2
2017-05-29T04:59:53.455Z,1000.13
2017-05-29T05:01:03.866Z,1000.09
2017-05-29T05:02:14.210Z,1000.03
2017-05-29T05:03:24.572Z,999.99
2017-05-29T05:04:34.919Z,1000.04
2017-05-29T05:05:45.272Z,1000.01
2017-05-29T05:06:55.383Z,1000.07
2017-05-29T05:08:05.741Z,1000.12
2017-05-29T05:09:15.787Z,1000.14
2017-05-29T05:10:26.150Z,1000.11
2017-05-29T05:11:36.217Z,1000.05
2017-05-29T05:12:46.563Z,1000.09
2017-05-29T05:13:56.600Z,1000.11
2017-05-29T05:15:06.972Z,1000.15
2017-05-29T05:16:17.314Z,1000.13
2017-05-29T05:17:27.682Z,1000.1
2017-05-29T05:18:38.316Z,1000.15
2017-05-29T05:19:48.363Z,1000.16
2017-05-29T05:20:58.722Z,1000.17
2017-05-29T05:22:08.755Z,1000.19
2017-05-29T05:23:19.115Z,1000.21
2017-05-29T05:24:29.205Z,1000.29
2017-05-29T05:25:39.578Z,1000.26
2017-05-29T05:26:49.953Z,1000.2
2017-05-29T05:27:59.977Z,1000.22
2017-05-29T05:29:10.056Z,1000.22
2017-05-29T05:30:20.464Z,1000.26
2017-05-29T05:31:30.819Z,1000.26
2017-05-29T05:32:41.179Z,1000.27
2017-05-29T05:33:51.213Z,1000.25
2017-05-29T05:35:01.562Z,1000.21
2017-05-29T05:36:11.915Z,1000.25
2017-05-29T05:37:21.952Z,1000.18
2017-05-29T05:38:32.319Z,1000.15
2017-05-29T05:39:42.404Z,1000.2
2017-05-29T05:40:52.455Z,1000.19
2017-05-29T05:42:02.878Z,1000.17
2017-05-29T05:43:12.931Z,1000.17
2017-05-29T05:44:22.667Z,1000.08
2017-05-29T05:45:33.029Z,1000.07
2017-05-29T05:46:43.088Z,1000.05
2017-05-29T05:47:53.122Z,1000.12
2017-05-29T05:49:03.489Z,1000.09
2017-05-29T05:50:13.849Z,1000.06
2017-05-29T05:51:24.199Z,1000.11
2017-05-29T05:52:34.578Z,1000.1
2017-05-29T05:53:44.987Z,1000.09
2017-05-29T05:54:55.334Z,1000.06
2017-05-29T05:56:05.381Z,1000.02
2017-05-29T05:57:15.725Z,1000.03
2017-05-29T05:58:25.782Z,1000
2017-05-29T05:59:36.249Z,1000
2017-05-29T06:00:46.661Z,999.97
2017-05-29T06:01:56.713Z,999.99
2017-05-29T06:03:07.067Z,999.96
2017-05-29T06:04:17.440Z,999.96
2017-05-29T06:05:27.850Z,1000.01
2017-05-29T06:06:37.886Z,999.98
2017-05-29T06:07:48.237Z,999.95
2017-05-29T06:08:58.589Z,999.9
2017-05-29T06:10:08.952Z,999.92
2017-05-29T06:11:19.364Z,1000.2
2017-05-29T06:12:29.406Z,1000.33
2017-05-29T06:13:39.468Z,1000.39
2017-05-29T06:14:49.823Z,1000.07
2017-05-29T06:16:00.206Z,999.77
2017-05-29T06:17:10.597Z,999.75
2017-05-29T06:18:20.947Z,999.76
2017-05-29T06:19:31.302Z,999.76
2017-05-29T06:20:41.338Z,999.75
2017-05-29T06:21:51.692Z,999.81
2017-05-29T06:23:02.035Z,999.93
2017-05-29T06:24:12.423Z,1000.02
2017-05-29T06:25:22.456Z,999.99
2017-05-29T06:26:32.810Z,999.95
2017-05-29T06:27:42.871Z,999.93
2017-05-29T06:28:53.231Z,999.92
2017-05-29T06:30:03.583Z,999.86
2017-05-29T06:31:13.937Z,999.89
2017-05-29T06:32:23.989Z,999.87
2017-05-29T06:33:34.345Z,999.85
2017-05-29T06:34:44.721Z,999.86
2017-05-29T06:35:54.773Z,999.85
2017-05-29T06:37:04.202Z,999.87
2017-05-29T06:38:14.254Z,999.89
2017-05-29T06:39:24.629Z,999.87
2017-05-29T06:40:35.004Z,999.91
2017-05-29T06:41:45.364Z,999.87
2017-05-29T06:42:55.410Z,999.87
2017-05-29T06:44:05.785Z,999.87
2017-05-29T06:45:15.832Z,999.88
2017-05-29T06:46:26.202Z,999.88
2017-05-29T06:47:36.264Z,999.88
2017-05-29T06:48:46.628Z,999.86
2017-05-29T06:49:57.015Z,999.86
2017-05-29T06:51:06.751Z,999.85
2017-05-29T06:52:17.163Z,999.84
2017-05-29T06:53:27.514Z,999.85
2017-05-29T06:54:37.564Z,999.85
2017-05-29T06:55:47.925Z,999.9
2017-05-29T06:56:58.277Z,999.86
2017-05-29T06:58:08.638Z,999.84
2017-05-29T06:59:19.029Z,999.82
2017-05-29T07:00:29.397Z,999.81
2017-05-29T07:01:39.120Z,999.81
2017-05-29T07:02:49.467Z,999.77
2017-05-29T07:03:59.521Z,999.77
2017-05-29T07:05:09.926Z,999.74
2017-05-29T07:06:20.299Z,999.72
2017-05-29T07:07:30.682Z,999.72
2017-05-29T07:08:40.746Z,999.7
2017-05-29T07:09:51.120Z,999.68
2017-05-29T07:11:01.546Z,999.69
2017-05-29T07:12:11.904Z,999.69
2017-05-29T07:13:22.269Z,999.68
2017-05-29T07:14:32.622Z,999.65
2017-05-29T07:15:42.979Z,999.73
2017-05-29T07:16:53.326Z,999.71
2017-05-29T07:18:03.372Z,999.77
2017-05-29T07:19:12.796Z,999.76
2017-05-29T07:20:23.371Z,999.81
2017-05-29T07:21:33.728Z,999.74
2017-05-29T07:22:44.385Z,999.78
2017-05-29T07:23:54.746Z,999.79
2017-05-29T07:25:05.098Z,999.81
2017-05-29T07:26:15.444Z,999.79
2017-05-29T07:27:25.473Z,999.77
2017-05-29T07:28:35.892Z,999.75
2017-05-29T07:29:46.255Z,999.78
2017-05-29T07:30:56.298Z,999.74
2017-05-29T07:32:06.654Z,999.7
2017-05-29T07:33:17.020Z,999.74
2017-05-29T07:34:27.133Z,999.73
2017-05-29T07:35:37.516Z,999.73
2017-05-29T07:36:47.240Z,999.73
2017-05-29T07:37:57.298Z,999.69
2017-05-29T07:39:07.684Z,999.68
2017-05-29T07:40:17.784Z,999.67
2017-05-29T07:41:28.164Z,999.64
2017-05-29T07:42:38.532Z,999.67
2017-05-29T07:43:48.886Z,999.64
2017-05-29T07:44:58.923Z,999.73
2017-05-29T07:46:08.657Z,999.7
2017-05-29T07:47:18.706Z,999.72
2017-05-29T07:48:28.745Z,999.73
2017-05-29T07:49:39.095Z,999.74
2017-05-29T07:50:49.437Z,999.74
2017-05-29T07:51:59.472Z,999.71
2017-05-29T07:53:09.822Z,999.75
2017-05-29T07:54:20.184Z,999.81
2017-05-29T07:55:30.544Z,999.75
2017-05-29T07:56:40.902Z,999.76
2017-05-29T07:57:50.682Z,999.77
2017-05-29T07:59:01.035Z,999.78
2017-05-29T08:00:10.771Z,999.78
2017-05-29T08:01:21.211Z,999.79
2017-05-29T08:02:31.589Z,999.79
2017-05-29T08:03:41.937Z,999.75
2017-05-29T08:04:52.304Z,999.77
2017-05-29T08:06:02.652Z,999.78
2017-05-29T08:07:13.004Z,999.78
2017-05-29T08:08:22.740Z,999.81
2017-05-29T08:09:33.141Z,999.79
2017-05-29T08:10:43.494Z,999.76
2017-05-29T08:11:53.877Z,999.76
2017-05-29T08:13:03.916Z,999.75
2017-05-29T08:14:14.280Z,999.78
2017-05-29T08:15:24.703Z,999.81
2017-05-29T08:16:34.745Z,999.77
2017-05-29T08:17:44.456Z,999.74
2017-05-29T08:18:54.512Z,999.75
2017-05-29T08:20:04.867Z,999.73
2017-05-29T08:21:14.954Z,999.64
2017-05-29T08:22:25.003Z,999.63
2017-05-29T08:23:35.044Z,999.61
2017-05-29T08:24:45.399Z,999.6
2017-05-29T08:25:55.455Z,999.6
2017-05-29T08:27:05.540Z,999.56
2017-05-29T08:28:15.286Z,999.58
2017-05-29T08:29:25.326Z,999.58
2017-05-29T08:30:35.383Z,999.57
2017-05-29T08:31:45.433Z,999.6
2017-05-29T08:32:55.851Z,999.56
2017-05-29T08:34:06.222Z,999.56
2017-05-29T08:35:16.574Z,999.49
2017-05-29T08:36:26.943Z,999.5
2017-05-29T08:37:37.320Z,999.49
2017-05-29T08:38:47.371Z,999.49
2017-05-29T08:39:57.096Z,999.48
2017-05-29T08:41:07.463Z,999.47
2017-05-29T08:42:17.838Z,999.5
2017-05-29T08:43:28.184Z,999.5
2017-05-29T08:44:38.549Z,999.48
2017-05-29T08:45:48.921Z,999.53
2017-05-29T08:46:59.281Z,999.51
2017-05-29T08:48:09.661Z,999.5
2017-05-29T08:49:20.027Z,999.53
2017-05-29T08:50:30.380Z,999.52
2017-05-29T08:51:40.744Z,999.51
2017-05-29T08:52:51.102Z,999.5
2017-05-29T08:54:01.464Z,999.49
2017-05-29T08:55:11.815Z,999.49
2017-05-29T08:56:21.860Z,999.48
2017-05-29T08:57:32.280Z,999.48
2017-05-29T08:58:42.640Z,999.43
2017-05-29T08:59:52.434Z,999.41
2017-05-29T09:01:02.175Z,999.43
2017-05-29T09:02:12.587Z,999.41
2017-05-29T09:03:22.937Z,999.41
2017-05-29T09:04:33.298Z,999.44
2017-05-29T09:05:43.352Z,999.46
2017-05-29T09:06:53.712Z,999.4
2017-05-29T09:08:03.493Z,999.38
2017-05-29T09:09:13.840Z,999.43
2017-05-29T09:10:23.573Z,999.42
2017-05-29T09:11:33.940Z,999.4
2017-05-29T09:12:44.370Z,999.41
2017-05-29T09:13:54.928Z,999.41
2017-05-29T09:15:05.566Z,999.37
2017-05-29T09:16:16.383Z,999.35
2017-05-29T09:17:26.622Z,999.35
2017-05-29T09:18:36.952Z,999.36
2017-05-29T09:19:47.050Z,999.35
2017-05-29T09:20:57.094Z,999.29
2017-05-29T09:22:07.476Z,999.29
2017-05-29T09:23:17.843Z,999.29
2017-05-29T09:24:28.219Z,999.28
2017-05-29T09:25:38.274Z,999.29
2017-05-29T09:26:48.626Z,999.31
2017-05-29T09:27:58.670Z,999.34
2017-05-29T09:29:09.037Z,999.33
2017-05-29T09:30:19.390Z,999.33
2017-05-29T09:31:29.726Z,999.36
2017-05-29T09:32:39.781Z,999.3
2017-05-29T09:33:50.145Z,999.3
2017-05-29T09:35:00.504Z,999.31
2017-05-29T09:36:10.849Z,999.35
2017-05-29T09:37:21.269Z,999.36
2017-05-29T09:38:31.632Z,999.31
2017-05-29T09:39:42.004Z,999.3
2017-05-29T09:40:51.425Z,999.29
2017-05-29T09:42:01.486Z,999.26
2017-05-29T09:43:11.530Z,999.2
2017-05-29T09:44:21.898Z,999.22
2017-05-29T09:45:32.263Z,999.27
2017-05-29T09:46:42.619Z,999.2
2017-05-29T09:47:53.011Z,999.2
2017-05-29T09:49:03.422Z,999.21
2017-05-29T09:50:13.457Z,999.18
2017-05-29T09:51:23.873Z,999.18
2017-05-29T09:52:34.232Z,999.17
2017-05-29T09:53:44.654Z,999.19
2017-05-29T09:54:54.717Z,999.15
2017-05-29T09:56:04.793Z,999.17
2017-05-29T09:57:14.850Z,999.19
2017-05-29T09:58:25.201Z,999.17
2017-05-29T09:59:35.599Z,999.17
2017-05-29T10:00:45.645Z,999.17
2017-05-29T10:01:55.705Z,999.15
2017-05-29T10:03:06.075Z,999.15
2017-05-29T10:04:16.436Z,999.14
2017-05-29T10:05:26.489Z,999.09
2017-05-29T10:06:36.534Z,999.12
2017-05-29T10:07:46.907Z,999.17
2017-05-29T10:08:56.963Z,999.13
2017-05-29T10:10:07.022Z,999.13
2017-05-29T10:11:17.423Z,999.1
2017-05-29T10:12:27.476Z,999.09
2017-05-29T10:13:37.523Z,999.1
2017-05-29T10:14:47.879Z,999.1
2017-05-29T10:15:58.227Z,999.06
2017-05-29T10:17:08.321Z,999.05
2017-05-29T10:18:18.687Z,999.07
2017-05-29T10:19:29.034Z,999.01
2017-05-29T10:20:39.387Z,999.05
2017-05-29T10:21:49.758Z,998.99
2017-05-29T10:22:59.788Z,999.02
2017-05-29T10:24:10.162Z,998.99
2017-05-29T10:25:20.525Z,999.05
2017-05-29T10:26:30.882Z,999.01
2017-05-29T10:27:41.223Z,999
2017-05-29T10:28:51.628Z,999.01
2017-05-29T10:30:01.663Z,998.95
2017-05-29T10:31:12.031Z,998.94
2017-05-29T10:32:22.379Z,998.89
2017-05-29T10:33:32.744Z,998.93
2017-05-29T10:34:43.153Z,998.94
2017-05-29T10:35:53.517Z,998.89
2017-05-29T10:37:03.862Z,998.92
2017-05-29T10:38:14.463Z,998.9
2017-05-29T10:39:24.502Z,998.91
2017-05-29T10:40:34.899Z,998.9
2017-05-29T10:41:45.267Z,998.92
2017-05-29T10:42:55.318Z,998.87
2017-05-29T10:44:05.684Z,998.86
2017-05-29T10:45:15.722Z,998.86
2017-05-29T10:46:26.122Z,998.87
2017-05-29T10:47:36.156Z,998.84
2017-05-29T10:48:46.518Z,998.79
2017-05-29T10:49:56.879Z,998.78
2017-05-29T10:51:07.256Z,998.79
2017-05-29T10:52:17.357Z,998.75
2017-05-29T10:53:27.104Z,998.76
2017-05-29T10:54:36.512Z,998.76
2017-05-29T10:55:46.870Z,998.76
2017-05-29T10:56:56.905Z,998.82
2017-05-29T10:58:06.693Z,998.76
2017-05-29T10:59:16.728Z,998.77
2017-05-29T11:00:26.777Z,998.77
2017-05-29T11:01:37.161Z,998.71
2017-05-29T11:02:47.527Z,998.74
2017-05-29T11:03:57.312Z,998.7
2017-05-29T11:05:07.373Z,998.74
2017-05-29T11:06:17.735Z,998.7
2017-05-29T11:07:28.106Z,998.71
2017-05-29T11:08:38.160Z,998.72
2017-05-29T11:09:47.939Z,998.67
2017-05-29T11:10:57.972Z,998.67
2017-05-29T11:12:08.319Z,998.69
2017-05-29T11:13:18.669Z,998.66
2017-05-29T11:14:28.716Z,998.68
2017-05-29T11:15:38.830Z,998.66
2017-05-29T11:16:49.199Z,998.66
2017-05-29T11:17:59.560Z,998.67
2017-05-29T11:19:09.923Z,998.67
2017-05-29T11:20:20.027Z,998.67
2017-05-29T11:21:30.434Z,998.67
2017-05-29T11:22:40.478Z,998.63
2017-05-29T11:23:50.239Z,998.61
2017-05-29T11:25:00.287Z,998.56
2017-05-29T11:26:10.335Z,998.57
2017-05-29T11:27:20.750Z,998.53
2017-05-29T11:28:31.114Z,998.52
2017-05-29T11:29:41.460Z,998.53
2017-05-29T11:30:51.826Z,998.57
2017-05-29T11:32:02.193Z,998.53
2017-05-29T11:33:12.606Z,998.5
2017-05-29T11:34:22.966Z,998.5
2017-05-29T11:35:33.304Z,998.48
2017-05-29T11:36:43.653Z,998.5
2017-05-29T11:37:54.003Z,998.45
2017-05-29T11:39:04.090Z,998.43
2017-05-29T11:40:14.485Z,998.43
2017-05-29T11:41:24.842Z,998.44
2017-05-29T11:42:35.224Z,998.45
2017-05-29T11:43:45.583Z,998.43
2017-05-29T11:44:55.943Z,998.39
2017-05-29T11:46:06.299Z,998.36
2017-05-29T11:47:16.347Z,998.33
2017-05-29T11:48:26.716Z,998.31
2017-05-29T11:49:37.089Z,998.34
2017-05-29T11:50:46.875Z,998.33
2017-05-29T11:51:57.268Z,998.33
2017-05-29T11:53:07.317Z,998.31
2017-05-29T11:54:17.664Z,998.32
2017-05-29T11:55:28.008Z,998.31
2017-05-29T11:56:38.676Z,998.25
2017-05-29T11:57:49.032Z,998.27
2017-05-29T11:58:59.073Z,998.28
2017-05-29T12:00:09.489Z,998.26
2017-05-29T12:01:19.858Z,998.26
2017-05-29T12:02:30.311Z,998.33
2017-05-29T12:03:40.726Z,998.23
2017-05-29T12:04:51.092Z,998.22
2017-05-29T12:06:01.139Z,998.2
2017-05-29T12:07:11.182Z,998.17
2017-05-29T12:08:21.549Z,998.16
2017-05-29T12:09:31.900Z,998.14
2017-05-29T12:10:42.275Z,998.13
2017-05-29T12:11:52.632Z,998.13
2017-05-29T12:13:02.989Z,998.11
2017-05-29T12:14:12.772Z,998.09
2017-05-29T12:15:23.137Z,998.06
2017-05-29T12:16:33.513Z,997.98
2017-05-29T12:17:43.878Z,997.98
2017-05-29T12:18:53.919Z,998
2017-05-29T12:20:04.332Z,997.97
2017-05-29T12:21:14.701Z,998
2017-05-29T12:22:25.066Z,997.97
2017-05-29T12:23:35.423Z,997.97
2017-05-29T12:24:45.786Z,997.94
2017-05-29T12:25:55.886Z,997.92
2017-05-29T12:27:06.486Z,997.93
2017-05-29T12:28:16.554Z,997.94
2017-05-29T12:29:26.935Z,997.89
2017-05-29T12:30:37.307Z,997.88
2017-05-29T12:31:47.694Z,997.85
2017-05-29T12:32:58.069Z,997.82
2017-05-29T12:34:08.436Z,997.84
2017-05-29T12:35:18.495Z,997.79
2017-05-29T12:36:28.543Z,997.77
2017-05-29T12:37:38.904Z,997.76
2017-05-29T12:38:48.639Z,997.76
2017-05-29T12:39:58.700Z,997.73
2017-05-29T12:41:08.749Z,997.67
2017-05-29T12:42:19.115Z,997.64
2017-05-29T12:43:29.206Z,997.67
2017-05-29T12:44:39.577Z,997.65
2017-05-29T12:45:50.132Z,997.59
2017-05-29T12:47:00.517Z,997.64
2017-05-29T12:48:10.863Z,997.65
2017-05-29T12:49:21.480Z,997.6
2017-05-29T12:50:31.222Z,997.64
2017-05-29T12:51:41.588Z,997.61
2017-05-29T12:52:51.640Z,997.6
2017-05-29T12:54:02.011Z,997.57
2017-05-29T12:55:12.046Z,997.59
2017-05-29T12:56:22.099Z,997.61
2017-05-29T12:57:32.457Z,997.62
2017-05-29T12:58:42.512Z,997.58
2017-05-29T12:59:52.876Z,997.58
2017-05-29T13:01:03.295Z,997.57
2017-05-29T13:02:13.334Z,997.56
2017-05-29T13:03:23.694Z,997.57
2017-05-29T13:04:34.071Z,997.55
2017-05-29T13:05:44.441Z,997.57
2017-05-29T13:06:54.798Z,997.54
2017-05-29T13:08:05.154Z,997.59
2017-05-29T13:09:15.194Z,997.58
2017-05-29T13:10:25.553Z,997.58
2017-05-29T13:11:35.936Z,997.57
2017-05-29T13:12:46.366Z,997.54
2017-05-29T13:13:56.418Z,997.56
2017-05-29T13:15:06.784Z,997.56
2017-05-29T13:16:17.150Z,997.52
2017-05-29T13:17:27.508Z,997.52
2017-05-29T13:18:37.983Z,997.51
2017-05-29T13:19:48.347Z,997.49
2017-05-29T13:20:58.409Z,997.48
2017-05-29T13:22:08.445Z,997.47
2017-05-29T13:23:18.492Z,997.51
2017-05-29T13:24:28.917Z,997.41
2017-05-29T13:25:38.661Z,997.45
2017-05-29T13:26:49.031Z,997.44
2017-05-29T13:27:59.499Z,997.42
2017-05-29T13:29:09.640Z,997.42
2017-05-29T13:30:19.453Z,997.37
2017-05-29T13:31:29.842Z,997.38
2017-05-29T13:32:39.906Z,997.32
2017-05-29T13:33:50.265Z,997.35
2017-05-29T13:35:00.635Z,997.34
2017-05-29T13:36:10.420Z,997.35
2017-05-29T13:37:20.793Z,997.35
2017-05-29T13:38:30.841Z,997.35
2017-05-29T13:39:40.574Z,997.36
2017-05-29T13:40:50.627Z,997.29
2017-05-29T13:42:01.050Z,997.33
2017-05-29T13:43:11.638Z,997.31
2017-05-29T13:44:22.003Z,997.29
2017-05-29T13:45:32.363Z,997.3
2017-05-29T13:46:42.425Z,997.33
2017-05-29T13:47:52.840Z,997.31
2017-05-29T13:49:03.190Z,997.25
2017-05-29T13:50:13.243Z,997.27
2017-05-29T13:51:23.616Z,997.19
2017-05-29T13:52:33.994Z,997.19
2017-05-29T13:53:44.502Z,997.18
2017-05-29T13:54:54.870Z,997.25
2017-05-29T13:56:04.915Z,997.23
2017-05-29T13:57:15.286Z,997.24
2017-05-29T13:58:25.033Z,997.24
2017-05-29T13:59:35.436Z,997.2
2017-05-29T14:00:45.474Z,997.22
2017-05-29T14:01:55.853Z,997.25
2017-05-29T14:03:06.213Z,997.26
2017-05-29T14:04:16.268Z,997.29
2017-05-29T14:05:26.516Z,997.27
2017-05-29T14:06:36.882Z,997.25
2017-05-29T14:07:47.466Z,997.17
2017-05-29T14:08:57.837Z,997.17
2017-05-29T14:10:07.874Z,997.15
2017-05-29T14:11:18.203Z,997.13
2017-05-29T14:12:28.541Z,997.13
2017-05-29T14:13:38.909Z,997.12
2017-05-29T14:14:49.006Z,997.12
2017-05-29T14:15:59.371Z,997.14
2017-05-29T14:17:09.812Z,997.13
2017-05-29T14:18:20.177Z,997.13
2017-05-29T14:19:30.246Z,997.09
2017-05-29T14:20:40.600Z,997.1
2017-05-29T14:21:50.630Z,997.13
2017-05-29T14:23:00.923Z,997.09
2017-05-29T14:24:11.303Z,997.06
2017-05-29T14:25:21.346Z,997
2017-05-29T14:26:31.717Z,997
2017-05-29T14:27:41.779Z,997
2017-05-29T14:28:51.556Z,997
2017-05-29T14:30:01.618Z,996.96
2017-05-29T14:31:11.692Z,996.98
2017-05-29T14:32:21.762Z,996.95
2017-05-29T14:33:32.134Z,996.98
2017-05-29T14:34:42.555Z,996.95
2017-05-29T14:35:52.607Z,996.99
2017-05-29T14:37:02.972Z,996.97
2017-05-29T14:38:13.015Z,996.97
2017-05-29T14:39:23.382Z,996.95
2017-05-29T14:40:33.972Z,996.91
2017-05-29T14:41:44.329Z,996.89
2017-05-29T14:42:54.702Z,996.88
2017-05-29T14:44:04.840Z,996.85
2017-05-29T14:45:15.210Z,996.86
2017-05-29T14:46:25.002Z,996.8
2017-05-29T14:47:35.063Z,996.76
2017-05-29T14:48:44.787Z,996.76
2017-05-29T14:49:55.162Z,996.77
2017-05-29T14:51:05.558Z,996.76
2017-05-29T14:52:15.674Z,996.74
2017-05-29T14:53:26.046Z,996.74
2017-05-29T14:54:36.401Z,996.74
2017-05-29T14:55:46.512Z,996.73
2017-05-29T14:56:56.879Z,996.72
2017-05-29T14:58:07.315Z,996.69
2017-05-29T14:59:17.391Z,996.68
2017-05-29T15:00:27.756Z,996.66
2017-05-29T15:01:37.824Z,996.67
2017-05-29T15:02:48.193Z,996.7